Rafael Lopez

Olheiro-Chefe - Santa Fe
22 Abr 2027
Quinta-feira
Processo

Personalidade

Adaptabilidade (9) Ambição (7) Controvérsia (1) Lealdade (17) Pressão (10) Profissionalismo (11) Espírito Esportivo (4) Temperamento (5)

Perfil

Estilo de Treinamento Democrático
Licença Nacional B
Determinação 10
Gestão de Pessoas 4
Motivação 4
Disciplina 11
Satisfação no Trabalho
96%
Fadiga
0%
Função Olheiro-Chefe
Salário 94.1K p/s
Contrato 14.03.2028

Desempenho

Comportamento Bom
Eficácia do Treinamento
42%
Desenvolvimento do Jogador
55%
Prevenção de Lesões
30%
Implementação Tática
45%

Eventos Recentes

Participou de uma reunião de recrutamento agora
Recomendou um alvo de transferência agora
Recomendou um alvo de transferência agora
Recomendou um alvo de transferência agora
Recomendou um alvo de transferência agora
Recomendou um alvo de transferência agora
Participou de uma reunião de recrutamento agora
Avaliou um jogador agora

Monitorando agora

223
Jogador Clube Status Habilidade Confiança Observado Última observação Último voto
Lander Astiazarán Real Sociedad Ativo 118 / 106 40% 4 21.04.2027 -
Leo Castledine Middlesbrough Ativo 141 / 132 40% 2 21.04.2027 -
Rodrigo Mora AS Roma Ativo 145 / 142 40% 2 20.04.2027 -
Mfundo Vilakazi Kaizer Chiefs Ativo 113 / 131 40% 2 20.04.2027 -
Daniel Vernattus Metalist Ativo 89 / 99 40% 1 20.04.2027 -
Jaygo van Ommeren Utrecht Ativo 90 / 115 40% 1 20.04.2027 -
Christos Mouzakitis Hull City Ativo 111 / 122 40% 6 19.04.2027 -
Laurent Batshuayi KV Oostende Ativo 118 / 158 40% 1 19.04.2027 -
Benjamin Tsivanyo Aduana Stars Ativo 85 / 90 40% 6 17.04.2027 -
Josh King Chelsea Ativo 142 / 132 40% 2 17.04.2027 -
Othmane Maamma Watford Ativo 132 / 132 40% 2 17.04.2027 -
Rhys Walters Port Vale Ativo 118 / 110 40% 1 17.04.2027 -
David Ozoh Derby County Ativo 138 / 109 40% 2 15.04.2027 -
Jesús Rodríguez Como Ativo 154 / 157 40% 1 14.04.2027 -
Percy Jali Free State Stars Ativo 80 / 116 40% 1 14.04.2027 -
Cyriaque Irié VfL Wolfsburg Ativo 126 / 127 40% 1 13.04.2027 -
André Miranda Porto Ativo 104 / 86 40% 1 13.04.2027 -
Yussif Saidu Zaragoza Ativo 117 / 116 40% 5 12.04.2027 -
Matías Gómez Granada Ativo 107 / 139 40% 2 12.04.2027 -
Ronwen Phiri Platinum Stars Ativo 106 / 117 40% 1 12.04.2027 -
Noël Aséko Eintracht Frankfurt Ativo 105 / 136 40% 1 11.04.2027 -
Ethan Williams Peterborough United Ativo 100 / 110 40% 2 10.04.2027 -
Shea Lacey Wolverhampton Ativo 127 / 129 40% 1 07.04.2027 -
Daniel Awuni Aduana Stars Ativo 93 / 83 40% 1 06.04.2027 -
Kazunari Kita Real Sociedad Ativo 83 / 95 40% 1 06.04.2027 -
Adam Bakoune Ospitaletto Ativo 100 / 117 40% 1 06.04.2027 -
James Dornelly Peterborough United Ativo 117 / 94 40% 3 05.04.2027 -
Thulani Erasmus Platinum Stars Ativo 91 / 93 40% 2 03.04.2027 -
Jan Virgili Club Brugge Ativo 139 / 138 40% 1 02.04.2027 -
Joel McGregor Swindon Town Ativo 98 / 116 40% 1 01.04.2027 -
Calum Agius Crewe Alexandra Ativo 88 / 114 40% 1 01.04.2027 -
Hazeem Bakre Crawley Town Ativo 99 / 85 40% 1 31.03.2027 -
Jayden Addai Como Ativo 136 / 129 40% 1 30.03.2027 -
Zack Nelson Bromley Ativo 119 / 112 40% 1 28.03.2027 -
Jofre Torrents Ajax Ativo 104 / 119 40% 1 28.03.2027 -
Lucas Jetten Cambuur Ativo 125 / 110 40% 1 26.03.2027 -
Rocco Vata Watford Ativo 105 / 122 40% 1 26.03.2027 -
Ethan Mbappé LOSC Lille Ativo 131 / 127 40% 1 25.03.2027 -
Kutlwano Letlhaku Ajax Cape Town Ativo 131 / 99 40% 1 23.03.2027 -
Araphat Mohammed Berekum Chelsea Ativo 91 / 111 40% 1 22.03.2027 -
Ruan Alanyaspor Ativo 140 / 133 40% 1 19.03.2027 -
Oscar Schwartau Norwich City Ativo 111 / 149 40% 2 17.03.2027 -
Ibrahim Maza Bayer Leverkusen Ativo 128 / 157 40% 2 17.03.2027 -
Monty Batlhabane Polokwane City Ativo 89 / 100 40% 1 16.03.2027 -
Antoni Milambo Brentford Ativo 151 / 142 40% 1 13.03.2027 -
Mamadou Diakhon Club Brugge Ativo 99 / 111 40% 1 11.03.2027 -
Jayden Luker Barnet Ativo 91 / 100 40% 1 07.03.2027 -
Riley Owen Trento Ativo 84 / 90 40% 1 05.03.2027 -
Paul Wanner PSV Ativo 118 / 149 40% 1 03.03.2027 -
Belal Ateya Al Ahly Ativo 90 / 139 40% 1 02.03.2027 -
Afonso Assis Moreirense Ativo 108 / 105 40% 1 25.02.2027 -
Israel Reyes CSKA Moscow Ativo 139 / 136 40% 2 23.02.2027 -
Nadir Zortea Bologna Ativo 149 / 142 40% 2 23.02.2027 -
Juanlu Bournemouth Ativo 137 / 136 40% 2 22.02.2027 -
Zak Swanson Bradford City Ativo 110 / 104 40% 1 22.02.2027 -
Abel Bretones Osasuna Ativo 147 / 130 40% 1 17.02.2027 -
Bosun Lawal Stoke City Ativo 132 / 127 40% 1 16.02.2027 -
Ronnie Edwards Queens Park Rangers Ativo 114 / 141 40% 1 16.02.2027 -
Leif Davis Ipswich Town Ativo 148 / 125 40% 1 15.02.2027 -
Matisse Samoise KAA Gent Ativo 113 / 140 40% 1 14.02.2027 -
Jacques Ekomié Wrexham Ativo 120 / 119 40% 2 13.02.2027 -
Josh Tymon Swansea City Ativo 119 / 129 40% 3 12.02.2027 -
Alessandro Buongiorno Sassuolo Ativo 141 / 162 40% 1 10.02.2027 -
Christian Krasnodar Ativo 138 / 129 40% 5 09.02.2027 -
Robert-Jan Vanwesemael Sint-Truiden Ativo 136 / 102 40% 1 09.02.2027 -
Luke McNally Bristol City Ativo 116 / 122 40% 1 08.02.2027 -
Jordan Beyer Burnley Ativo 131 / 145 40% 1 08.02.2027 -
Nicolás Fernández Mercau Shakhtar Ativo 132 / 131 40% 1 06.02.2027 -
Milan van Ewijk Mansfield Town Ativo 148 / 139 40% 1 02.02.2027 -
Teden Mengi Luton Town Ativo 114 / 128 40% 2 01.02.2027 -
Ramón Terrats Getafe Ativo 139 / 121 40% 1 01.02.2027 -
Kellen Fisher Norwich City Ativo 109 / 111 40% 1 31.01.2027 -
Mandla Erasmus SuperSport United Ativo 129 / 131 40% 1 31.01.2027 -
Lucas Da Cunha Como Ativo 147 / 130 40% 1 28.01.2027 -
Juan Mosquera Sheffield Wednesday Ativo 136 / 129 40% 1 25.01.2027 -
Max Bird Birmingham Ativo 117 / 113 40% 1 24.01.2027 -
Toby Collyer West Bromwich Albion Ativo 151 / 118 40% 1 20.01.2027 -
Bali Mumba Huddersfield Town Ativo 106 / 121 40% 2 19.01.2027 -
Di'Shon Bernard Sheffield Wednesday Ativo 118 / 118 40% 1 18.01.2027 -
Ben Nelson Leicester City Ativo 111 / 147 40% 1 16.01.2027 -
Japhet Tanganga Sheffield United Ativo 127 / 122 40% 1 15.01.2027 -
Max Johnston Derby County Ativo 103 / 118 40% 1 13.01.2027 -
Francisco Álvarez Argentinos Juniors Ativo 112 / 121 40% 1 13.01.2027 -
Tristan Crama Millwall Ativo 109 / 141 40% 1 11.01.2027 -
Joaquín García Vélez Ativo 120 / 132 40% 2 10.01.2027 -
Nobel Mendy Hull City Ativo 136 / 123 40% 1 09.01.2027 -
Facundo Mansilla Central Córdoba SdE Ativo 105 / 124 40% 1 06.01.2027 -
Tomás Ribeiro Cultural Leonesa Ativo 137 / 125 40% 1 06.01.2027 -
Williams Manyama SuperSport United Ativo 125 / 129 40% 2 04.01.2027 -
Pelle Mattsson Norwich City Ativo 126 / 104 40% 1 02.01.2027 -
Franco Ibarra Rosario Central Ativo 120 / 123 40% 2 01.01.2027 -
Nicolas Madsen Queens Park Rangers Ativo 133 / 110 40% 1 01.01.2027 -
Nazareno Colombo Racing Club Ativo 139 / 135 40% 1 29.12.2026 Mais informações
Victor Parada Spartak Moscow Ativo 146 / 138 40% 1 29.12.2026 -
Alex Vigo Independiente Rivadavia Ativo 110 / 119 40% 1 28.12.2026 -
Santiago González Tigre Ativo 122 / 125 40% 1 22.12.2026 -
Oli McBurnie Hull City Ativo 119 / 118 40% 2 16.12.2026 -
Tomás Molina Argentinos Juniors Perdido 136 / 134 40% 1 16.12.2026 -
Nicolò Tresoldi Club Brugge Ativo 133 / 130 40% 2 15.12.2026 -
Patson Daka Leicester City Ativo 137 / 119 40% 1 15.12.2026 -
Alexis Cuello San Lorenzo Rejeitado 113 / 127 40% 4 14.12.2026 -
Will Lankshear Middlesbrough Ativo 134 / 121 40% 1 14.12.2026 -
Enzo Avaro Odd Ativo 124 / 120 40% 1 03.12.2026 -
Agustín Módica Gimnasia y Esgrima Perdido 112 / 118 40% 1 03.12.2026 -
Mao Hosoya Sagan Tosu Ativo 134 / 135 67% 1 01.12.2026 Aprovar
Konstantin Tyukavin Inter Negociando 132 / 133 66% 1 01.12.2026 Aprovar
José Paradela Cruz Azul Ativo 137 / 137 66% 1 01.12.2026 Aprovar
Toni Fruk KV Mechelen Ativo 132 / 133 66% 1 01.12.2026 Aprovar
Marcel Ruiz RC Lens Ativo 140 / 141 66% 1 01.12.2026 Aprovar
Ruben van Bommel Ferencvaros Ativo 138 / 142 40% 1 30.11.2026 -
Tomás Silva Platense Ativo 135 / 115 40% 1 28.11.2026 -
Tiago Palacios Estudiantes Ativo 120 / 129 40% 2 27.11.2026 -
Rubén Duarte Legia Ativo 145 / 144 40% 1 27.11.2026 -
Gastón Lodico Racing Club Ativo 120 / 129 40% 2 26.11.2026 -
Joaquín Gho Argentinos Juniors Ativo 115 / 131 40% 2 26.11.2026 -
Juan Infante Atlético Tucumán Ativo 123 / 121 40% 4 25.11.2026 -
Alan Lescano Argentinos Juniors Ativo 124 / 120 40% 3 24.11.2026 -
Franco Zapiola Platense Ativo 127 / 126 40% 1 24.11.2026 -
Rodrigo Echeverría Leon Ativo 141 / 120 40% 5 22.11.2026 -
Bryan González Guadalajara Ativo 137 / 117 40% 1 22.11.2026 -
Jesús Ricardo Angulo Toluca Ativo 147 / 122 40% 2 21.11.2026 Mais informações
Cristian Calderón Pumas UNAM Ativo 113 / 117 40% 2 20.11.2026 -
Marcelo Estigarribia Unión de Santa Fe Ativo 121 / 126 40% 3 20.11.2026 -
Jesús Angulo Tigres Ativo 125 / 152 40% 5 18.11.2026 -
Oussama Idrissi Pachuca Ativo 155 / 137 40% 9 18.11.2026 -
Nicolás Sumavil Platense Ativo 129 / 122 40% 1 18.11.2026 -
Brian Gutiérrez Guadalajara Ativo 107 / 120 40% 3 16.11.2026 -
Alejandro Zendejas Club America Ativo 125 / 158 40% 4 13.11.2026 -
Bamba Dieng Crvena Zvezda Ativo 131 / 108 40% 1 12.11.2026 -
Fernando Gorriarán Tigres Ativo 120 / 141 40% 6 10.11.2026 -
César Ibáñez Huracán Ativo 132 / 117 40% 1 08.11.2026 -
Agustín Palavecino Cruz Azul Ativo 142 / 122 40% 6 07.11.2026 -
Orbelín Pineda Monterrey Ativo 124 / 139 40% 2 05.11.2026 -
Eliás Montiel Pachuca Ativo 116 / 137 40% 2 05.11.2026 -
Hany Mukhtar Spezia Ativo 146 / 146 40% 1 05.11.2026 -
Aurélien Scheidler Charleroi Ativo 105 / 105 40% 1 05.11.2026 -
Julian Zapata Cortulua Ativo 128 / 121 40% 3 03.11.2026 -
Carlos Gruezo Santos Laguna Ativo 130 / 106 40% 2 03.11.2026 -
Juninho Pumas UNAM Ativo 135 / 112 40% 3 03.11.2026 Observar
Gastón Fernández Chacarita Juniors Ativo 97 / 97 40% 1 03.11.2026 -
Erick Reyes Toluca Ativo 140 / 155 40% 2 02.11.2026 -
Michael Cooper Sheffield United Ativo 128 / 112 40% 1 02.11.2026 -
Ramiro Ruiz Rodríguez Atlético Tucumán Ativo 130 / 109 40% 2 01.11.2026 -
Iker Benito Queretaro Ativo 105 / 143 40% 2 30.10.2026 -
Fernando Valenzuela Queretaro Ativo 115 / 117 40% 2 30.10.2026 -
Jamie Cumming Oxford United Ativo 99 / 109 40% 1 30.10.2026 -
Luís Esteves Atlas Ativo 138 / 119 40% 1 28.10.2026 -
Marcelino Moreno Lanús Ativo 129 / 139 40% 2 27.10.2026 -
Francisco González Metilli Belgrano Ativo 113 / 137 40% 2 24.10.2026 -
Jhonatan Candia Barracas Central Ativo 135 / 117 40% 2 23.10.2026 -
Matías Cóccaro Newell's Old Boys Ativo 116 / 114 40% 1 23.10.2026 -
Wessam Abou Ali Columbus Crew Ativo 123 / 139 40% 1 23.10.2026 -
Erik Lira Cruz Azul Ativo 151 / 127 40% 3 21.10.2026 -
Rômulo Tigres Ativo 105 / 115 40% 2 21.10.2026 -
Facundo Cambeses Racing Club Ativo 136 / 123 40% 2 21.10.2026 -
Agustín Lastra Estudiantes Ativo 101 / 98 40% 1 21.10.2026 -
Juan Brunetta Tigres Ativo 143 / 144 40% 2 18.10.2026 -
Joaquín Bigo Tristán Suárez Ativo 117 / 95 40% 2 18.10.2026 -
Diego Rossi Monterrey Ativo 117 / 129 40% 2 14.10.2026 -
Joaquim Tigres Ativo 118 / 146 40% 1 14.10.2026 -
Santiago Núñez Estudiantes Ativo 112 / 137 40% 1 14.10.2026 -
Ezequiel Bullaude Santos Laguna Ativo 109 / 112 40% 1 14.10.2026 -
Lautaro Petruchi Gimnasia y Esgrima Ativo 128 / 125 40% 1 13.10.2026 -
Agustín Buffa Wanderers Ativo 110 / 90 40% 1 13.10.2026 -
Miguel Castillo La Equidad Ativo 128 / 121 40% 1 12.10.2026 -
Jordi Cortizo Leon Ativo 104 / 144 40% 1 09.10.2026 -
Efraín Álvarez Guadalajara Ativo 142 / 140 40% 1 07.10.2026 -
Matías Reali San Lorenzo Ativo 131 / 123 40% 1 06.10.2026 -
Luis Ingolotti Atlético Tucumán Ativo 111 / 115 40% 1 04.10.2026 -
Mauro Casoli Talleres Ativo 109 / 103 40% 1 04.10.2026 -
Pedro Vite Pumas UNAM Ativo 116 / 110 40% 1 04.10.2026 -
Adnan Courtois KV Oostende Ativo 137 / 123 40% 1 03.10.2026 -
Tomás O'Connor Gimnasia y Esgrima Ativo 108 / 137 40% 1 03.10.2026 -
Facundo Zabala Independiente Ativo 129 / 135 40% 1 29.09.2026 -
Richard Martinez Veracruz Ativo 142 / 132 40% 1 27.09.2026 -
Joaquín Silva Plaza Colonia Ativo 111 / 102 40% 1 25.09.2026 -
Juan Pablo Domínguez Leon Ativo 118 / 131 40% 2 23.09.2026 -
Ulises Ortegoza Talleres Ativo 109 / 110 40% 1 23.09.2026 -
Nicolás Castro Toluca Ativo 108 / 123 40% 1 22.09.2026 -
Jaminton Campaz Rosario Central Ativo 111 / 126 40% 1 19.09.2026 -
Omar Carabalí Shonan Bellmare Ativo 130 / 102 40% 1 19.09.2026 -
Santiago Silva CFR Cluj Ativo 99 / 138 40% 1 19.09.2026 -
Antony Alonso Deportivo Riestra Ativo 113 / 120 40% 1 18.09.2026 -
Rafael Navarro St. Louis CITY SC Ativo 148 / 123 40% 1 18.09.2026 -
Carlos Moreno Pachuca Ativo 120 / 126 40% 1 16.09.2026 -
Iván Rodríguez Leon Ativo 145 / 120 40% 1 15.09.2026 -
Dani Raba Standard Liege Ativo 145 / 128 40% 2 12.09.2026 -
Manuel Ospina Cortulua Ativo 132 / 113 40% 1 11.09.2026 -
Kein Sato FC Tokyo Ativo 117 / 138 40% 1 11.09.2026 -
Richard Ledezma Guadalajara Ativo 122 / 125 40% 3 09.09.2026 -
Adalberto Carrasquilla Pumas UNAM Ativo 105 / 129 40% 1 09.09.2026 -
Dayne St. Clair Inter Miami CF Ativo 107 / 116 40% 1 09.09.2026 -
Kenedy Pachuca Ativo 133 / 120 40% 1 07.09.2026 -
Tomás Ahumada Audax Italiano Ativo 106 / 109 40% 1 07.09.2026 -
César Huerta Pumas UNAM Ativo 120 / 120 40% 1 04.09.2026 -
Renato Solís Sporting Cristal Ativo 112 / 130 40% 1 03.09.2026 -
Bradley Mabunda SuperSport United Ativo 96 / 94 40% 1 02.09.2026 -
Nicolás Fonseca Leon Ativo 102 / 128 40% 2 31.08.2026 -
Matt Freese New York City Ativo 123 / 128 40% 1 30.08.2026 -
Angel Zamudio Sport Huancayo Ativo 115 / 113 40% 1 29.08.2026 -
Ángel González Libertad Ativo 108 / 99 40% 1 29.08.2026 -
Matías Dufour Sportivo Trinidense Ativo 116 / 96 40% 1 28.08.2026 -
Franco Cristaldo Talleres Ativo 138 / 129 40% 1 24.08.2026 -
Jeremy Márquez Cruz Azul Ativo 112 / 140 40% 1 23.08.2026 -
Lautaro Amadé Defensa y Justicia Ativo 105 / 111 40% 3 22.08.2026 -
Luis Malagón Club America Ativo 120 / 142 40% 1 22.08.2026 -
Beycker Velásquez Zamora Ativo 105 / 89 40% 2 21.08.2026 -
Justo Giani Universidad Catolica Ativo 113 / 110 40% 1 18.08.2026 -
Germán Berterame Inter Miami CF Ativo 136 / 121 40% 1 18.08.2026 -
Víctor Guzmán Toluca Ativo 142 / 115 40% 1 14.08.2026 -
César Inga Universitario Ativo 119 / 116 40% 1 12.08.2026 -
Salvador Reyes Leon Ativo 100 / 142 40% 1 12.08.2026 -
João Félix Olympiacos Ativo 165 / 160 40% 1 12.08.2026 -
Enzo Giménez Queretaro Ativo 144 / 124 40% 1 09.08.2026 -
César Araújo Tigres Ativo 118 / 110 40% 1 09.08.2026 -
Víctor Dávila Club America Ativo 104 / 137 40% 1 07.08.2026 -
Franco Romero Toluca Ativo 105 / 128 40% 1 07.08.2026 -
Ramiro Sordo Santos Laguna Ativo 124 / 131 40% 1 06.08.2026 -
Matías Fernández Colo-Colo Ativo 122 / 115 40% 1 06.08.2026 -
Luis Romo Guadalajara Ativo 115 / 141 40% 1 05.08.2026 -
Alejandro Rodríguez Deportivo Cali Ativo 135 / 131 40% 1 04.08.2026 -
Federico Viñas Toluca Ativo 126 / 132 40% 1 01.08.2026 -
Christian Ebere Cruz Azul Ativo 99 / 106 40% 1 01.08.2026 -